sensor_id;sensor_type;location;lat;lon;timestamp;P1;durP1;ratioP1;P2;durP2;ratioP2
635;SDS011;302;50.206;8.196;2023-02-01T00:00:58;11.87;;;10.77;;
635;SDS011;302;50.206;8.196;2023-02-01T00:03:24;11.30;;;10.30;;
635;SDS011;302;50.206;8.196;2023-02-01T00:05:58;12.57;;;11.37;;
635;SDS011;302;50.206;8.196;2023-02-01T00:08:23;12.43;;;11.25;;
635;SDS011;302;50.206;8.196;2023-02-01T00:10:48;11.17;;;10.17;;
635;SDS011;302;50.206;8.196;2023-02-01T00:13:14;10.83;;;9.93;;
635;SDS011;302;50.206;8.196;2023-02-01T00:15:39;10.50;;;9.60;;
635;SDS011;302;50.206;8.196;2023-02-01T00:18:04;11.85;;;10.32;;
635;SDS011;302;50.206;8.196;2023-02-01T00:20:29;11.17;;;10.07;;
635;SDS011;302;50.206;8.196;2023-02-01T00:22:54;10.20;;;9.30;;
635;SDS011;302;50.206;8.196;2023-02-01T00:25:19;9.70;;;8.80;;
635;SDS011;302;50.206;8.196;2023-02-01T00:27:48;11.20;;;9.53;;
635;SDS011;302;50.206;8.196;2023-02-01T00:30:13;11.27;;;8.15;;
635;SDS011;302;50.206;8.196;2023-02-01T00:32:38;10.13;;;9.17;;
635;SDS011;302;50.206;8.196;2023-02-01T00:35:03;9.10;;;8.30;;
635;SDS011;302;50.206;8.196;2023-02-01T00:37:29;8.63;;;7.80;;
635;SDS011;302;50.206;8.196;2023-02-01T00:39:54;8.87;;;8.07;;
635;SDS011;302;50.206;8.196;2023-02-01T00:42:20;9.50;;;8.60;;
635;SDS011;302;50.206;8.196;2023-02-01T00:44:45;8.37;;;7.57;;
635;SDS011;302;50.206;8.196;2023-02-01T00:47:11;7.57;;;6.88;;
635;SDS011;302;50.206;8.196;2023-02-01T00:49:37;8.27;;;7.50;;
635;SDS011;302;50.206;8.196;2023-02-01T00:52:02;8.37;;;7.67;;
635;SDS011;302;50.206;8.196;2023-02-01T00:54:27;7.77;;;6.90;;
635;SDS011;302;50.206;8.196;2023-02-01T00:56:52;8.43;;;7.53;;
635;SDS011;302;50.206;8.196;2023-02-01T00:59:17;8.10;;;7.30;;
635;SDS011;302;50.206;8.196;2023-02-01T01:01:43;8.73;;;6.80;;
635;SDS011;302;50.206;8.196;2023-02-01T01:04:08;9.17;;;7.90;;
635;SDS011;302;50.206;8.196;2023-02-01T01:06:34;9.60;;;7.13;;
635;SDS011;302;50.206;8.196;2023-02-01T01:09:00;8.70;;;7.90;;
635;SDS011;302;50.206;8.196;2023-02-01T01:11:27;8.85;;;7.85;;
635;SDS011;302;50.206;8.196;2023-02-01T01:13:53;8.82;;;7.97;;
635;SDS011;302;50.206;8.196;2023-02-01T01:16:19;9.97;;;8.23;;
635;SDS011;302;50.206;8.196;2023-02-01T01:18:45;9.40;;;7.70;;
635;SDS011;302;50.206;8.196;2023-02-01T01:21:11;8.23;;;7.53;;
635;SDS011;302;50.206;8.196;2023-02-01T01:23:37;8.77;;;8.05;;
635;SDS011;302;50.206;8.196;2023-02-01T01:26:06;9.83;;;8.83;;
635;SDS011;302;50.206;8.196;2023-02-01T01:28:31;9.20;;;8.40;;
635;SDS011;302;50.206;8.196;2023-02-01T01:30:56;8.77;;;7.97;;
635;SDS011;302;50.206;8.196;2023-02-01T01:33:21;9.10;;;8.20;;
635;SDS011;302;50.206;8.196;2023-02-01T01:35:46;10.13;;;8.40;;
635;SDS011;302;50.206;8.196;2023-02-01T01:38:11;10.00;;;9.10;;
635;SDS011;302;50.206;8.196;2023-02-01T01:40:37;8.83;;;8.03;;
635;SDS011;302;50.206;8.196;2023-02-01T01:43:02;8.93;;;7.90;;
635;SDS011;302;50.206;8.196;2023-02-01T01:45:31;9.77;;;8.83;;
635;SDS011;302;50.206;8.196;2023-02-01T01:48:01;8.55;;;7.75;;
635;SDS011;302;50.206;8.196;2023-02-01T01:50:29;9.45;;;7.75;;
635;SDS011;302;50.206;8.196;2023-02-01T01:52:56;9.23;;;8.43;;
635;SDS011;302;50.206;8.196;2023-02-01T01:55:22;8.82;;;8.05;;
635;SDS011;302;50.206;8.196;2023-02-01T01:57:55;10.00;;;7.72;;
635;SDS011;302;50.206;8.196;2023-02-01T02:00:20;11.77;;;8.15;;
635;SDS011;302;50.206;8.196;2023-02-01T02:02:46;9.47;;;7.50;;
635;SDS011;302;50.206;8.196;2023-02-01T02:05:12;8.48;;;7.68;;
635;SDS011;302;50.206;8.196;2023-02-01T02:07:39;8.10;;;7.30;;
635;SDS011;302;50.206;8.196;2023-02-01T02:10:06;8.32;;;7.53;;
635;SDS011;302;50.206;8.196;2023-02-01T02:12:32;8.50;;;7.68;;
635;SDS011;302;50.206;8.196;2023-02-01T02:14:57;8.40;;;6.70;;
635;SDS011;302;50.206;8.196;2023-02-01T02:17:26;7.10;;;6.40;;
635;SDS011;302;50.206;8.196;2023-02-01T02:36:33;8.10;;;5.22;;
635;SDS011;302;50.206;8.196;2023-02-01T02:39:05;7.60;;;5.32;;
635;SDS011;302;50.206;8.196;2023-02-01T02:44:20;8.20;;;5.35;;
635;SDS011;302;50.206;8.196;2023-02-01T02:47:06;5.57;;;5.07;;
635;SDS011;302;50.206;8.196;2023-02-01T02:52:36;7.82;;;5.93;;
635;SDS011;302;50.206;8.196;2023-02-01T02:55:22;8.00;;;5.78;;
635;SDS011;302;50.206;8.196;2023-02-01T02:57:48;6.72;;;5.50;;
635;SDS011;302;50.206;8.196;2023-02-01T03:00:32;6.50;;;5.07;;
635;SDS011;302;50.206;8.196;2023-02-01T03:03:16;5.38;;;4.88;;
635;SDS011;302;50.206;8.196;2023-02-01T03:06:00;7.20;;;5.68;;
635;SDS011;302;50.206;8.196;2023-02-01T03:08:26;10.97;;;5.93;;
635;SDS011;302;50.206;8.196;2023-02-01T03:11:06;8.63;;;6.15;;
635;SDS011;302;50.206;8.196;2023-02-01T03:20:59;7.82;;;5.75;;
635;SDS011;302;50.206;8.196;2023-02-01T03:23:26;10.23;;;6.80;;
635;SDS011;302;50.206;8.196;2023-02-01T03:25:53;7.63;;;6.10;;
635;SDS011;302;50.206;8.196;2023-02-01T03:28:20;12.23;;;6.03;;
635;SDS011;302;50.206;8.196;2023-02-01T03:30:47;8.48;;;5.70;;
635;SDS011;302;50.206;8.196;2023-02-01T03:33:14;12.37;;;5.97;;
635;SDS011;302;50.206;8.196;2023-02-01T03:40:38;8.40;;;5.67;;
635;SDS011;302;50.206;8.196;2023-02-01T03:43:04;10.68;;;6.15;;
635;SDS011;302;50.206;8.196;2023-02-01T03:45:38;7.25;;;5.10;;
635;SDS011;302;50.206;8.196;2023-02-01T03:48:07;6.38;;;5.15;;
635;SDS011;302;50.206;8.196;2023-02-01T03:50:33;6.68;;;5.30;;
635;SDS011;302;50.206;8.196;2023-02-01T03:53:02;5.95;;;5.03;;
635;SDS011;302;50.206;8.196;2023-02-01T03:55:30;6.38;;;5.25;;
635;SDS011;302;50.206;8.196;2023-02-01T04:00:25;5.82;;;5.22;;
635;SDS011;302;50.206;8.196;2023-02-01T04:02:50;6.70;;;5.88;;
635;SDS011;302;50.206;8.196;2023-02-01T04:05:16;8.33;;;5.60;;
635;SDS011;302;50.206;8.196;2023-02-01T04:07:41;7.13;;;5.70;;
635;SDS011;302;50.206;8.196;2023-02-01T04:10:07;9.37;;;6.10;;
635;SDS011;302;50.206;8.196;2023-02-01T04:12:32;6.55;;;4.95;;
635;SDS011;302;50.206;8.196;2023-02-01T04:14:58;8.10;;;5.40;;
635;SDS011;302;50.206;8.196;2023-02-01T04:17:23;6.13;;;5.10;;
635;SDS011;302;50.206;8.196;2023-02-01T04:19:48;7.73;;;5.00;;
635;SDS011;302;50.206;8.196;2023-02-01T04:22:13;11.10;;;5.67;;
635;SDS011;302;50.206;8.196;2023-02-01T04:24:38;7.93;;;5.67;;
635;SDS011;302;50.206;8.196;2023-02-01T04:27:04;11.40;;;5.00;;
635;SDS011;302;50.206;8.196;2023-02-01T04:29:29;8.80;;;5.20;;
635;SDS011;302;50.206;8.196;2023-02-01T04:31:54;7.80;;;5.47;;
635;SDS011;302;50.206;8.196;2023-02-01T04:34:19;10.93;;;6.00;;
635;SDS011;302;50.206;8.196;2023-02-01T04:36:44;7.60;;;5.80;;
635;SDS011;302;50.206;8.196;2023-02-01T04:39:10;8.93;;;5.20;;
635;SDS011;302;50.206;8.196;2023-02-01T04:41:35;11.00;;;5.33;;
635;SDS011;302;50.206;8.196;2023-02-01T04:44:00;12.90;;;5.63;;
635;SDS011;302;50.206;8.196;2023-02-01T04:46:25;9.63;;;5.10;;
635;SDS011;302;50.206;8.196;2023-02-01T04:48:50;8.90;;;4.97;;
635;SDS011;302;50.206;8.196;2023-02-01T04:51:15;16.33;;;5.47;;
635;SDS011;302;50.206;8.196;2023-02-01T04:53:41;11.88;;;6.05;;
635;SDS011;302;50.206;8.196;2023-02-01T04:56:06;9.73;;;5.13;;
635;SDS011;302;50.206;8.196;2023-02-01T04:58:31;8.03;;;4.80;;
635;SDS011;302;50.206;8.196;2023-02-01T05:00:56;13.20;;;5.40;;
635;SDS011;302;50.206;8.196;2023-02-01T05:03:22;7.50;;;4.70;;
635;SDS011;302;50.206;8.196;2023-02-01T05:05:47;12.87;;;6.17;;
635;SDS011;302;50.206;8.196;2023-02-01T05:08:13;11.27;;;5.43;;
635;SDS011;302;50.206;8.196;2023-02-01T05:10:38;12.27;;;5.10;;
635;SDS011;302;50.206;8.196;2023-02-01T05:13:03;5.23;;;4.73;;
635;SDS011;302;50.206;8.196;2023-02-01T05:15:47;8.73;;;5.97;;
635;SDS011;302;50.206;8.196;2023-02-01T05:18:12;6.87;;;4.70;;
635;SDS011;302;50.206;8.196;2023-02-01T05:20:37;12.53;;;5.10;;
635;SDS011;302;50.206;8.196;2023-02-01T05:23:02;10.17;;;5.27;;
635;SDS011;302;50.206;8.196;2023-02-01T05:25:28;16.30;;;6.60;;
635;SDS011;302;50.206;8.196;2023-02-01T05:27:53;8.53;;;5.03;;
635;SDS011;302;50.206;8.196;2023-02-01T05:30:18;15.63;;;6.73;;
635;SDS011;302;50.206;8.196;2023-02-01T05:32:43;13.50;;;6.40;;
635;SDS011;302;50.206;8.196;2023-02-01T05:35:08;16.33;;;6.63;;
635;SDS011;302;50.206;8.196;2023-02-01T05:37:34;14.87;;;5.77;;
635;SDS011;302;50.206;8.196;2023-02-01T05:39:59;11.20;;;5.50;;
635;SDS011;302;50.206;8.196;2023-02-01T05:42:24;13.27;;;7.23;;
635;SDS011;302;50.206;8.196;2023-02-01T05:44:49;8.40;;;4.93;;
635;SDS011;302;50.206;8.196;2023-02-01T05:47:14;12.48;;;6.15;;
635;SDS011;302;50.206;8.196;2023-02-01T05:49:40;12.57;;;6.40;;
635;SDS011;302;50.206;8.196;2023-02-01T05:52:05;12.13;;;6.27;;
635;SDS011;302;50.206;8.196;2023-02-01T05:54:30;10.70;;;6.70;;
635;SDS011;302;50.206;8.196;2023-02-01T05:56:55;12.30;;;6.23;;
635;SDS011;302;50.206;8.196;2023-02-01T05:59:20;11.50;;;5.97;;
635;SDS011;302;50.206;8.196;2023-02-01T06:01:45;18.17;;;12.93;;
635;SDS011;302;50.206;8.196;2023-02-01T06:04:11;15.23;;;7.10;;
635;SDS011;302;50.206;8.196;2023-02-01T06:06:36;13.80;;;8.17;;
635;SDS011;302;50.206;8.196;2023-02-01T06:09:02;9.97;;;6.30;;
635;SDS011;302;50.206;8.196;2023-02-01T06:11:27;12.90;;;7.60;;
635;SDS011;302;50.206;8.196;2023-02-01T06:13:52;13.53;;;7.90;;
635;SDS011;302;50.206;8.196;2023-02-01T06:16:18;16.25;;;8.15;;
635;SDS011;302;50.206;8.196;2023-02-01T06:18:44;13.60;;;8.00;;
635;SDS011;302;50.206;8.196;2023-02-01T06:21:09;14.30;;;8.80;;
635;SDS011;302;50.206;8.196;2023-02-01T06:23:34;9.80;;;7.40;;
635;SDS011;302;50.206;8.196;2023-02-01T06:26:00;10.60;;;5.90;;
635;SDS011;302;50.206;8.196;2023-02-01T06:28:26;15.40;;;6.97;;
635;SDS011;302;50.206;8.196;2023-02-01T06:30:52;12.75;;;6.57;;
635;SDS011;302;50.206;8.196;2023-02-01T06:33:17;12.37;;;6.00;;
635;SDS011;302;50.206;8.196;2023-02-01T06:35:43;9.27;;;5.70;;
635;SDS011;302;50.206;8.196;2023-02-01T06:38:09;11.75;;;6.03;;
635;SDS011;302;50.206;8.196;2023-02-01T06:40:34;7.87;;;5.73;;
635;SDS011;302;50.206;8.196;2023-02-01T06:43:00;12.00;;;5.97;;
635;SDS011;302;50.206;8.196;2023-02-01T06:45:25;8.87;;;5.60;;
635;SDS011;302;50.206;8.196;2023-02-01T06:47:50;10.10;;;6.37;;
635;SDS011;302;50.206;8.196;2023-02-01T06:50:16;14.20;;;6.07;;
635;SDS011;302;50.206;8.196;2023-02-01T06:52:41;14.93;;;6.47;;
635;SDS011;302;50.206;8.196;2023-02-01T06:55:06;11.13;;;5.23;;
635;SDS011;302;50.206;8.196;2023-02-01T06:57:31;8.40;;;5.20;;
635;SDS011;302;50.206;8.196;2023-02-01T06:59:58;8.93;;;5.22;;
635;SDS011;302;50.206;8.196;2023-02-01T07:02:23;8.97;;;5.10;;
635;SDS011;302;50.206;8.196;2023-02-01T07:04:48;11.40;;;6.20;;
635;SDS011;302;50.206;8.196;2023-02-01T07:07:13;10.63;;;5.07;;
635;SDS011;302;50.206;8.196;2023-02-01T07:09:40;12.45;;;5.05;;
635;SDS011;302;50.206;8.196;2023-02-01T07:12:05;9.43;;;5.53;;
635;SDS011;302;50.206;8.196;2023-02-01T07:14:30;14.43;;;5.43;;
635;SDS011;302;50.206;8.196;2023-02-01T07:16:55;10.20;;;5.03;;
635;SDS011;302;50.206;8.196;2023-02-01T07:19:21;8.83;;;5.53;;
635;SDS011;302;50.206;8.196;2023-02-01T07:21:46;11.03;;;5.10;;
635;SDS011;302;50.206;8.196;2023-02-01T07:24:11;15.53;;;5.80;;
635;SDS011;302;50.206;8.196;2023-02-01T07:26:36;9.83;;;5.00;;
635;SDS011;302;50.206;8.196;2023-02-01T07:29:01;10.90;;;5.60;;
635;SDS011;302;50.206;8.196;2023-02-01T07:31:27;7.53;;;5.20;;
635;SDS011;302;50.206;8.196;2023-02-01T07:33:53;12.80;;;5.32;;
635;SDS011;302;50.206;8.196;2023-02-01T07:36:21;11.10;;;4.82;;
635;SDS011;302;50.206;8.196;2023-02-01T07:38:46;11.87;;;5.10;;
635;SDS011;302;50.206;8.196;2023-02-01T07:41:15;10.25;;;5.03;;
635;SDS011;302;50.206;8.196;2023-02-01T07:43:41;7.93;;;5.37;;
635;SDS011;302;50.206;8.196;2023-02-01T07:46:06;7.33;;;4.90;;
635;SDS011;302;50.206;8.196;2023-02-01T07:48:32;8.43;;;4.63;;
635;SDS011;302;50.206;8.196;2023-02-01T07:51:05;10.90;;;5.07;;
635;SDS011;302;50.206;8.196;2023-02-01T07:53:31;10.40;;;5.15;;
635;SDS011;302;50.206;8.196;2023-02-01T07:55:57;10.38;;;5.15;;
635;SDS011;302;50.206;8.196;2023-02-01T07:58:23;7.57;;;5.07;;
635;SDS011;302;50.206;8.196;2023-02-01T08:00:48;10.40;;;4.83;;
635;SDS011;302;50.206;8.196;2023-02-01T08:03:32;7.05;;;4.50;;
635;SDS011;302;50.206;8.196;2023-02-01T08:05:57;13.73;;;6.70;;
635;SDS011;302;50.206;8.196;2023-02-01T08:08:23;9.80;;;5.30;;
635;SDS011;302;50.206;8.196;2023-02-01T08:10:48;11.00;;;4.57;;
635;SDS011;302;50.206;8.196;2023-02-01T08:13:13;9.70;;;5.10;;
635;SDS011;302;50.206;8.196;2023-02-01T08:15:39;7.83;;;4.43;;
635;SDS011;302;50.206;8.196;2023-02-01T08:18:04;8.90;;;4.60;;
635;SDS011;302;50.206;8.196;2023-02-01T08:20:29;11.40;;;4.77;;
635;SDS011;302;50.206;8.196;2023-02-01T08:22:54;10.73;;;6.47;;
635;SDS011;302;50.206;8.196;2023-02-01T08:25:20;10.90;;;5.03;;
635;SDS011;302;50.206;8.196;2023-02-01T08:27:45;12.53;;;4.70;;
635;SDS011;302;50.206;8.196;2023-02-01T08:30:11;13.70;;;4.93;;
635;SDS011;302;50.206;8.196;2023-02-01T08:32:36;9.07;;;4.60;;
635;SDS011;302;50.206;8.196;2023-02-01T08:35:02;9.57;;;4.70;;
635;SDS011;302;50.206;8.196;2023-02-01T08:37:27;7.40;;;5.05;;
635;SDS011;302;50.206;8.196;2023-02-01T08:39:52;12.33;;;6.27;;
635;SDS011;302;50.206;8.196;2023-02-01T08:42:17;10.90;;;4.73;;
635;SDS011;302;50.206;8.196;2023-02-01T08:45:02;8.40;;;4.90;;
635;SDS011;302;50.206;8.196;2023-02-01T08:47:28;5.05;;;4.13;;
635;SDS011;302;50.206;8.196;2023-02-01T08:49:53;13.17;;;5.07;;
635;SDS011;302;50.206;8.196;2023-02-01T08:52:18;9.13;;;5.10;;
635;SDS011;302;50.206;8.196;2023-02-01T08:54:43;9.50;;;4.70;;
635;SDS011;302;50.206;8.196;2023-02-01T08:57:09;10.90;;;5.63;;
635;SDS011;302;50.206;8.196;2023-02-01T08:59:37;10.02;;;5.45;;
635;SDS011;302;50.206;8.196;2023-02-01T09:02:02;9.33;;;5.13;;
635;SDS011;302;50.206;8.196;2023-02-01T09:04:27;11.47;;;5.30;;
635;SDS011;302;50.206;8.196;2023-02-01T09:06:53;9.73;;;5.20;;
635;SDS011;302;50.206;8.196;2023-02-01T09:09:20;8.52;;;4.93;;
635;SDS011;302;50.206;8.196;2023-02-01T09:11:45;11.30;;;5.00;;
635;SDS011;302;50.206;8.196;2023-02-01T09:14:10;11.43;;;4.73;;
635;SDS011;302;50.206;8.196;2023-02-01T09:16:36;9.40;;;4.60;;
635;SDS011;302;50.206;8.196;2023-02-01T09:19:01;8.63;;;5.30;;
635;SDS011;302;50.206;8.196;2023-02-01T09:21:26;7.53;;;4.50;;
635;SDS011;302;50.206;8.196;2023-02-01T09:23:51;13.40;;;6.90;;
635;SDS011;302;50.206;8.196;2023-02-01T09:26:16;8.20;;;5.40;;
635;SDS011;302;50.206;8.196;2023-02-01T09:28:41;11.40;;;5.87;;
635;SDS011;302;50.206;8.196;2023-02-01T09:31:07;11.03;;;5.07;;
635;SDS011;302;50.206;8.196;2023-02-01T09:33:32;9.47;;;4.30;;
635;SDS011;302;50.206;8.196;2023-02-01T09:36:01;6.83;;;4.50;;
635;SDS011;302;50.206;8.196;2023-02-01T09:38:27;11.57;;;5.25;;
635;SDS011;302;50.206;8.196;2023-02-01T09:40:52;11.97;;;5.03;;
635;SDS011;302;50.206;8.196;2023-02-01T09:45:59;9.17;;;4.27;;
635;SDS011;302;50.206;8.196;2023-02-01T09:48:27;9.00;;;4.72;;
635;SDS011;302;50.206;8.196;2023-02-01T09:50:57;9.68;;;5.22;;
635;SDS011;302;50.206;8.196;2023-02-01T09:53:33;12.80;;;6.20;;
635;SDS011;302;50.206;8.196;2023-02-01T09:56:04;6.97;;;3.95;;
635;SDS011;302;50.206;8.196;2023-02-01T09:58:38;9.07;;;4.22;;
635;SDS011;302;50.206;8.196;2023-02-01T10:01:05;7.53;;;5.22;;
635;SDS011;302;50.206;8.196;2023-02-01T10:03:34;7.53;;;4.45;;
635;SDS011;302;50.206;8.196;2023-02-01T10:08:41;8.40;;;4.00;;
635;SDS011;302;50.206;8.196;2023-02-01T10:13:59;12.32;;;4.30;;
635;SDS011;302;50.206;8.196;2023-02-01T10:19:10;9.45;;;4.93;;
635;SDS011;302;50.206;8.196;2023-02-01T10:24:22;8.82;;;4.15;;
635;SDS011;302;50.206;8.196;2023-02-01T10:26:57;9.95;;;4.32;;
635;SDS011;302;50.206;8.196;2023-02-01T10:29:26;8.48;;;4.47;;
635;SDS011;302;50.206;8.196;2023-02-01T10:31:53;9.30;;;4.60;;
635;SDS011;302;50.206;8.196;2023-02-01T10:36:49;8.13;;;4.40;;
635;SDS011;302;50.206;8.196;2023-02-01T10:39:15;6.00;;;4.15;;
635;SDS011;302;50.206;8.196;2023-02-01T10:41:40;7.13;;;4.33;;
635;SDS011;302;50.206;8.196;2023-02-01T10:44:16;10.13;;;5.70;;
635;SDS011;302;50.206;8.196;2023-02-01T10:46:42;8.38;;;3.92;;
635;SDS011;302;50.206;8.196;2023-02-01T10:49:12;7.57;;;4.78;;
635;SDS011;302;50.206;8.196;2023-02-01T10:51:54;8.27;;;4.22;;
635;SDS011;302;50.206;8.196;2023-02-01T10:54:32;15.27;;;5.18;;
635;SDS011;302;50.206;8.196;2023-02-01T10:56:57;6.85;;;4.32;;
635;SDS011;302;50.206;8.196;2023-02-01T10:59:27;11.90;;;4.77;;
635;SDS011;302;50.206;8.196;2023-02-01T11:01:59;8.40;;;4.50;;
635;SDS011;302;50.206;8.196;2023-02-01T11:04:26;7.82;;;4.30;;
635;SDS011;302;50.206;8.196;2023-02-01T11:07:12;12.53;;;4.83;;
635;SDS011;302;50.206;8.196;2023-02-01T11:09:38;10.30;;;4.63;;
635;SDS011;302;50.206;8.196;2023-02-01T11:12:04;6.70;;;3.92;;
635;SDS011;302;50.206;8.196;2023-02-01T11:16:59;9.13;;;4.07;;
635;SDS011;302;50.206;8.196;2023-02-01T11:19:25;7.63;;;4.20;;
635;SDS011;302;50.206;8.196;2023-02-01T11:21:51;6.33;;;3.77;;
635;SDS011;302;50.206;8.196;2023-02-01T11:24:22;9.38;;;4.18;;
635;SDS011;302;50.206;8.196;2023-02-01T11:26:48;5.80;;;3.92;;
635;SDS011;302;50.206;8.196;2023-02-01T11:29:14;6.70;;;3.80;;
635;SDS011;302;50.206;8.196;2023-02-01T11:31:42;8.55;;;4.60;;
635;SDS011;302;50.206;8.196;2023-02-01T11:34:12;5.47;;;4.00;;
635;SDS011;302;50.206;8.196;2023-02-01T11:36:37;5.68;;;3.92;;
635;SDS011;302;50.206;8.196;2023-02-01T11:44:26;7.88;;;4.15;;
635;SDS011;302;50.206;8.196;2023-02-01T11:46:53;8.05;;;3.65;;
635;SDS011;302;50.206;8.196;2023-02-01T11:51:52;5.43;;;3.90;;
635;SDS011;302;50.206;8.196;2023-02-01T12:07:32;8.20;;;3.90;;
635;SDS011;302;50.206;8.196;2023-02-01T12:10:16;8.77;;;4.20;;
635;SDS011;302;50.206;8.196;2023-02-01T12:23:26;8.82;;;3.80;;
635;SDS011;302;50.206;8.196;2023-02-01T12:43:42;8.23;;;3.83;;
635;SDS011;302;50.206;8.196;2023-02-01T12:46:12;10.75;;;4.90;;
635;SDS011;302;50.206;8.196;2023-02-01T12:48:42;9.35;;;4.30;;
635;SDS011;302;50.206;8.196;2023-02-01T12:51:17;8.25;;;4.40;;
635;SDS011;302;50.206;8.196;2023-02-01T12:53:57;10.02;;;4.18;;
635;SDS011;302;50.206;8.196;2023-02-01T12:56:26;8.48;;;3.92;;
635;SDS011;302;50.206;8.196;2023-02-01T12:58:55;7.32;;;4.03;;
635;SDS011;302;50.206;8.196;2023-02-01T13:01:26;6.32;;;3.75;;
635;SDS011;302;50.206;8.196;2023-02-01T13:03:55;11.02;;;4.18;;
635;SDS011;302;50.206;8.196;2023-02-01T13:06:29;7.65;;;3.33;;
635;SDS011;302;50.206;8.196;2023-02-01T13:09:09;8.13;;;3.70;;
635;SDS011;302;50.206;8.196;2023-02-01T13:11:37;4.60;;;3.33;;
635;SDS011;302;50.206;8.196;2023-02-01T13:16:35;5.00;;;3.97;;
635;SDS011;302;50.206;8.196;2023-02-01T13:19:03;6.75;;;3.13;;
635;SDS011;302;50.206;8.196;2023-02-01T13:21:34;12.25;;;4.50;;
635;SDS011;302;50.206;8.196;2023-02-01T13:24:00;9.77;;;3.78;;
635;SDS011;302;50.206;8.196;2023-02-01T13:26:25;8.93;;;4.10;;
635;SDS011;302;50.206;8.196;2023-02-01T13:29:01;8.23;;;3.60;;
635;SDS011;302;50.206;8.196;2023-02-01T13:34:24;10.68;;;4.20;;
635;SDS011;302;50.206;8.196;2023-02-01T13:39:51;12.50;;;4.40;;
635;SDS011;302;50.206;8.196;2023-02-01T13:42:22;6.95;;;3.25;;
635;SDS011;302;50.206;8.196;2023-02-01T13:44:49;9.40;;;3.42;;
635;SDS011;302;50.206;8.196;2023-02-01T13:47:22;7.57;;;3.00;;
635;SDS011;302;50.206;8.196;2023-02-01T13:49:48;6.20;;;3.45;;
635;SDS011;302;50.206;8.196;2023-02-01T13:52:32;6.27;;;3.10;;
635;SDS011;302;50.206;8.196;2023-02-01T13:55:01;9.77;;;3.80;;
635;SDS011;302;50.206;8.196;2023-02-01T13:57:39;8.88;;;3.50;;
635;SDS011;302;50.206;8.196;2023-02-01T14:00:07;10.15;;;3.40;;
635;SDS011;302;50.206;8.196;2023-02-01T14:05:09;4.93;;;2.72;;
635;SDS011;302;50.206;8.196;2023-02-01T14:07:35;9.15;;;3.17;;
635;SDS011;302;50.206;8.196;2023-02-01T14:10:45;10.47;;;3.07;;
635;SDS011;302;50.206;8.196;2023-02-01T14:12:48;7.00;;;3.30;;
635;SDS011;302;50.206;8.196;2023-02-01T14:17:42;3.35;;;2.83;;
635;SDS011;302;50.206;8.196;2023-02-01T14:23:00;7.95;;;3.38;;
635;SDS011;302;50.206;8.196;2023-02-01T14:25:25;8.35;;;4.10;;
635;SDS011;302;50.206;8.196;2023-02-01T14:27:58;6.50;;;3.47;;
635;SDS011;302;50.206;8.196;2023-02-01T14:30:24;6.55;;;3.63;;
635;SDS011;302;50.206;8.196;2023-02-01T14:32:49;8.57;;;3.67;;
635;SDS011;302;50.206;8.196;2023-02-01T14:35:23;7.50;;;3.60;;
635;SDS011;302;50.206;8.196;2023-02-01T14:37:58;7.13;;;3.20;;
635;SDS011;302;50.206;8.196;2023-02-01T14:40:25;5.88;;;3.97;;
635;SDS011;302;50.206;8.196;2023-02-01T14:42:51;9.88;;;4.93;;
635;SDS011;302;50.206;8.196;2023-02-01T14:47:43;7.20;;;3.70;;
635;SDS011;302;50.206;8.196;2023-02-01T14:52:46;9.50;;;3.00;;
635;SDS011;302;50.206;8.196;2023-02-01T14:55:16;8.13;;;3.17;;
635;SDS011;302;50.206;8.196;2023-02-01T14:57:41;8.07;;;3.38;;
635;SDS011;302;50.206;8.196;2023-02-01T15:00:16;6.70;;;3.35;;
635;SDS011;302;50.206;8.196;2023-02-01T15:02:42;7.60;;;3.55;;
635;SDS011;302;50.206;8.196;2023-02-01T15:05:41;6.03;;;3.73;;
635;SDS011;302;50.206;8.196;2023-02-01T15:08:03;6.65;;;4.30;;
635;SDS011;302;50.206;8.196;2023-02-01T15:10:29;13.20;;;3.90;;
635;SDS011;302;50.206;8.196;2023-02-01T15:12:55;9.45;;;3.88;;
635;SDS011;302;50.206;8.196;2023-02-01T15:15:22;7.03;;;3.67;;
635;SDS011;302;50.206;8.196;2023-02-01T15:17:58;7.43;;;3.90;;
635;SDS011;302;50.206;8.196;2023-02-01T15:20:29;8.50;;;4.10;;
635;SDS011;302;50.206;8.196;2023-02-01T15:25:27;4.60;;;2.70;;
635;SDS011;302;50.206;8.196;2023-02-01T15:27:53;5.63;;;3.08;;
635;SDS011;302;50.206;8.196;2023-02-01T15:32:47;10.63;;;3.92;;
635;SDS011;302;50.206;8.196;2023-02-01T15:35:32;5.55;;;3.30;;
635;SDS011;302;50.206;8.196;2023-02-01T15:40:52;10.40;;;3.72;;
635;SDS011;302;50.206;8.196;2023-02-01T15:43:18;6.50;;;3.65;;
635;SDS011;302;50.206;8.196;2023-02-01T15:45:43;6.30;;;3.07;;
635;SDS011;302;50.206;8.196;2023-02-01T15:48:11;7.50;;;2.92;;
635;SDS011;302;50.206;8.196;2023-02-01T15:50:39;9.00;;;2.95;;
635;SDS011;302;50.206;8.196;2023-02-01T15:53:05;9.48;;;3.30;;
635;SDS011;302;50.206;8.196;2023-02-01T15:55:39;10.73;;;3.20;;
635;SDS011;302;50.206;8.196;2023-02-01T15:58:09;6.00;;;2.95;;
635;SDS011;302;50.206;8.196;2023-02-01T16:00:43;6.15;;;2.95;;
635;SDS011;302;50.206;8.196;2023-02-01T16:03:23;5.38;;;2.65;;
635;SDS011;302;50.206;8.196;2023-02-01T16:05:54;5.35;;;2.88;;
635;SDS011;302;50.206;8.196;2023-02-01T16:08:24;7.90;;;3.75;;
635;SDS011;302;50.206;8.196;2023-02-01T16:10:51;6.43;;;3.35;;
635;SDS011;302;50.206;8.196;2023-02-01T16:13:17;5.88;;;3.63;;
635;SDS011;302;50.206;8.196;2023-02-01T16:15:42;12.38;;;6.80;;
635;SDS011;302;50.206;8.196;2023-02-01T16:18:08;8.10;;;3.53;;
635;SDS011;302;50.206;8.196;2023-02-01T16:20:35;11.02;;;4.32;;
635;SDS011;302;50.206;8.196;2023-02-01T16:23:00;7.00;;;3.63;;
635;SDS011;302;50.206;8.196;2023-02-01T16:25:26;5.23;;;4.73;;
635;SDS011;302;50.206;8.196;2023-02-01T16:27:51;6.43;;;5.53;;
635;SDS011;302;50.206;8.196;2023-02-01T16:30:16;9.53;;;4.27;;
635;SDS011;302;50.206;8.196;2023-02-01T16:32:47;5.70;;;3.67;;
635;SDS011;302;50.206;8.196;2023-02-01T16:35:15;7.30;;;3.83;;
635;SDS011;302;50.206;8.196;2023-02-01T16:37:43;4.50;;;3.17;;
635;SDS011;302;50.206;8.196;2023-02-01T16:40:12;8.60;;;3.87;;
635;SDS011;302;50.206;8.196;2023-02-01T16:42:38;6.03;;;3.10;;
635;SDS011;302;50.206;8.196;2023-02-01T16:45:03;7.00;;;3.30;;
635;SDS011;302;50.206;8.196;2023-02-01T16:47:29;9.20;;;4.00;;
635;SDS011;302;50.206;8.196;2023-02-01T16:49:54;6.40;;;3.30;;
635;SDS011;302;50.206;8.196;2023-02-01T16:52:23;6.30;;;3.10;;
635;SDS011;302;50.206;8.196;2023-02-01T16:54:50;5.25;;;3.05;;
635;SDS011;302;50.206;8.196;2023-02-01T16:57:16;7.20;;;3.50;;
635;SDS011;302;50.206;8.196;2023-02-01T16:59:42;9.88;;;4.40;;
635;SDS011;302;50.206;8.196;2023-02-01T17:02:18;7.50;;;3.80;;
635;SDS011;302;50.206;8.196;2023-02-01T17:04:48;7.72;;;4.60;;
635;SDS011;302;50.206;8.196;2023-02-01T17:07:14;12.80;;;8.10;;
635;SDS011;302;50.206;8.196;2023-02-01T17:09:40;13.35;;;6.43;;
635;SDS011;302;50.206;8.196;2023-02-01T17:12:05;9.93;;;3.80;;
635;SDS011;302;50.206;8.196;2023-02-01T17:14:31;6.60;;;3.60;;
635;SDS011;302;50.206;8.196;2023-02-01T17:16:59;5.72;;;3.55;;
635;SDS011;302;50.206;8.196;2023-02-01T17:19:25;10.53;;;3.77;;
635;SDS011;302;50.206;8.196;2023-02-01T17:21:50;6.07;;;4.97;;
635;SDS011;302;50.206;8.196;2023-02-01T17:24:19;7.40;;;3.80;;
635;SDS011;302;50.206;8.196;2023-02-01T17:26:45;9.45;;;3.95;;
635;SDS011;302;50.206;8.196;2023-02-01T17:29:10;10.73;;;3.90;;
635;SDS011;302;50.206;8.196;2023-02-01T17:31:37;7.90;;;3.30;;
635;SDS011;302;50.206;8.196;2023-02-01T17:34:02;8.70;;;4.63;;
635;SDS011;302;50.206;8.196;2023-02-01T17:36:28;10.20;;;4.40;;
635;SDS011;302;50.206;8.196;2023-02-01T17:38:53;11.00;;;4.10;;
635;SDS011;302;50.206;8.196;2023-02-01T17:41:18;11.40;;;4.17;;
635;SDS011;302;50.206;8.196;2023-02-01T17:43:43;12.18;;;4.05;;
635;SDS011;302;50.206;8.196;2023-02-01T17:46:12;8.40;;;4.07;;
635;SDS011;302;50.206;8.196;2023-02-01T17:48:38;8.93;;;4.35;;
635;SDS011;302;50.206;8.196;2023-02-01T17:51:04;7.50;;;3.60;;
635;SDS011;302;50.206;8.196;2023-02-01T17:53:29;6.90;;;5.07;;
635;SDS011;302;50.206;8.196;2023-02-01T17:55:55;12.13;;;5.63;;